Adriatic Sea — WDB5553 — position and weather

sailwx.info

Track history (hours):
 
Tides and Currents Weather Stations Pressure Air Temp Water Temp Dewpoint Dewpoint Depression Visibility Wind Speed Wind Dir Waves Ship Positions

Adriatic Sea

Owner: Kirby Offshore Marine, LLC, Seattle, WA. More information available from US FCC via Universal Licensing System and Coast Guard Vessel Documentation Center.

Last reported at 2016-Jun-24 09:06 UTC. Time now 2016-Jun-24 20:26 UTC.
Position N 48°50' W 122°43'.

Length 42 m; draft 4.7 m.

Type: . MMSI: 366910890.

Date/timePositionNaut miles runAvg speedWind from/ knotsBaromVisibWave heightAir tempDewpointWater temp
2016-Jun-24 09:06N 48°50' W 122°43'0 0.0
2016-Jun-24 08:33N 48°50' W 122°43'1 0.7
2016-Jun-24 07:32N 48°49' W 122°44'1 0.3
2016-Jun-24 04:23N 48°48' W 122°44'0 0.0
2016-Jun-24 03:20N 48°48' W 122°44'0 0.0
2016-Jun-24 01:23N 48°48' W 122°44'1 0.4
2016-Jun-23 23:33N 48°48' W 122°44'6 6.2
2016-Jun-23 22:33N 48°42' W 122°43'6 5.7
2016-Jun-23 21:33N 48°36' W 122°45'5 5.1
2016-Jun-23 20:33N 48°31' W 122°44'4 3.8
2016-Jun-23 19:33N 48°27' W 122°44'4 4.0
2016-Jun-23 18:33N 48°23' W 122°44'6 5.7
2016-Jun-23 17:33N 48°18' W 122°47'8 7.5
2016-Jun-23 16:32N 48°10' W 122°44'10 9.9
2016-Jun-23 15:33N 48°02' W 122°37'9 8.8
2016-Jun-23 14:33N 47°55' W 122°29'8 8.2
2016-Jun-23 13:33N 47°47' W 122°26'7 7.2
2016-Jun-23 12:33N 47°40' W 122°27'7 7.4
2016-Jun-23 11:33N 47°33' W 122°26'7 7.1
2016-Jun-23 10:33N 47°26' W 122°23'6 5.9
2016-Jun-23 09:33N 47°20' W 122°25'4 0.3
2016-Jun-22 19:08N 47°17' W 122°23'0 0.0
2016-Jun-22 18:17N 47°17' W 122°23'0 0.0
2016-Jun-22 16:33N 47°17' W 122°23'3 3.0
2016-Jun-22 15:33N 47°18' W 122°27'3 3.0
2016-Jun-22 14:33N 47°20' W 122°29'0 0.1
2016-Jun-22 13:33N 47°20' W 122°29'0 0.1
2016-Jun-22 12:30N 47°20' W 122°29'0 0.0
2016-Jun-22 11:33N 47°21' W 122°29'0 0.1
2016-Jun-22 10:33N 47°20' W 122°29'0 0.1
2016-Jun-22 09:33N 47°20' W 122°29'0 0.0
2016-Jun-22 08:32N 47°20' W 122°29'0 0.0
2016-Jun-22 07:29N 47°20' W 122°29'0 0.0
2016-Jun-22 06:32N 47°20' W 122°29'0 0.0
2016-Jun-22 05:32N 47°20' W 122°29'0 0.1
2016-Jun-22 04:32N 47°20' W 122°29'0 0.1
2016-Jun-22 03:32N 47°21' W 122°29'0 0.0
2016-Jun-22 02:32N 47°20' W 122°29'0 0.1
2016-Jun-22 01:32N 47°20' W 122°29'0 0.1
2016-Jun-22 00:32N 47°21' W 122°29'0 0.0
2016-Jun-21 23:32N 47°21' W 122°29'0 0.1
2016-Jun-21 22:32N 47°21' W 122°29'0 0.1
2016-Jun-21 21:23N 47°20' W 122°29'0 0.1
2016-Jun-21 20:32N 47°20' W 122°29'0 0.0
2016-Jun-21 19:32N 47°20' W 122°29'0 0.0
2016-Jun-21 18:29N 47°20' W 122°29'1 0.9
2016-Jun-21 17:33N 47°20' W 122°28'4 4.1
2016-Jun-21 16:33N 47°23' W 122°23'4 4.1
2016-Jun-21 15:33N 47°26' W 122°25'4 4.2
2016-Jun-21 14:33N 47°31' W 122°26'4 4.5
2016-Jun-21 13:33N 47°35' W 122°28'5 4.8
2016-Jun-21 12:33N 47°40' W 122°28'5 4.7
2016-Jun-21 11:33N 47°44' W 122°27'5 4.7
2016-Jun-21 10:33N 47°49' W 122°28'5 4.5
2016-Jun-21 09:33N 47°53' W 122°30'4 4.0
2016-Jun-21 08:33N 47°57' W 122°33'9 3.5
2016-Jun-21 06:03N 48°04' W 122°40'4 2.7
2016-Jun-21 04:31N 48°08' W 122°42'3 3.2
2016-Jun-21 03:31N 48°10' W 122°46'4 4.3
2016-Jun-21 02:32N 48°13' W 122°49'5 5.3
2016-Jun-21 01:33N 48°19' W 122°47'5 4.6
2016-Jun-21 00:33N 48°23' W 122°45'3 3.4
2016-Jun-20 23:33N 48°26' W 122°45'2 2.4
2016-Jun-20 22:33N 48°29' W 122°44'3 2.7
2016-Jun-20 21:33N 48°31' W 122°45'3 3.5
2016-Jun-20 20:33N 48°35' W 122°45'5 5.0
2016-Jun-20 19:33N 48°40' W 122°43'6 5.9
2016-Jun-20 18:33N 48°45' W 122°46'3 0.8
2016-Jun-20 14:15N 48°49' W 122°45'0 0.1
2016-Jun-20 13:23N 48°49' W 122°45'0 0.1
2016-Jun-20 12:26N 48°49' W 122°46'0 0.0
2016-Jun-20 11:32N 48°49' W 122°46'0 0.1
2016-Jun-20 10:32N 48°49' W 122°46'0 0.3
2016-Jun-20 09:30N 48°49' W 122°45'3 3.2
2016-Jun-20 08:33N 48°52' W 122°46'0 0.0
2016-Jun-20 02:20N 48°52' W 122°45'0 0.0
2016-Jun-20 01:32N 48°52' W 122°45'0 0.0
2016-Jun-20 00:32N 48°52' W 122°45'0 0.0
2016-Jun-19 23:29N 48°52' W 122°45'0 0.0
2016-Jun-19 22:23N 48°52' W 122°45'0 0.0
2016-Jun-19 21:23N 48°52' W 122°45'0 0.0
2016-Jun-19 20:29N 48°52' W 122°45'0 0.0
2016-Jun-19 19:32N 48°52' W 122°45'0 0.0
2016-Jun-19 13:31N 48°52' W 122°45'0 0.0
2016-Jun-19 11:33N 48°52' W 122°45'0 0.2
2016-Jun-19 10:33N 48°52' W 122°46'1 0.6
2016-Jun-19 09:27N 48°51' W 122°46'1 1.4
2016-Jun-19 08:33N 48°50' W 122°46'6 5.8
2016-Jun-19 07:32N 48°44' W 122°45'6 5.7
2016-Jun-19 06:33N 48°39' W 122°40'4 4.0
2016-Jun-19 05:33N 48°40' W 122°34'5 4.8
2016-Jun-19 04:33N 48°44' W 122°32'0 0.0
2016-Jun-19 03:04N 48°44' W 122°32'0 0.0
2016-Jun-19 02:04N 48°44' W 122°32'0 0.0
2016-Jun-19 01:28N 48°44' W 122°32'0 0.0
2016-Jun-19 00:28N 48°44' W 122°32'0 0.0
2016-Jun-18 23:16N 48°44' W 122°32'0 0.1
2016-Jun-18 22:28N 48°44' W 122°32'0 0.0
2016-Jun-18 21:22N 48°44' W 122°32'0 0.0
2016-Jun-18 20:10N 48°44' W 122°32'0 0.0
2016-Jun-18 19:28N 48°44' W 122°32'0 0.0
2016-Jun-18 18:22N 48°44' W 122°32'0 0.0
2016-Jun-18 17:10N 48°44' W 122°32'0 0.0
2016-Jun-18 15:16N 48°44' W 122°32'0 0.0
2016-Jun-18 13:10N 48°44' W 122°32'0 0.0
2016-Jun-18 12:28N 48°44' W 122°32'0 0.0
2016-Jun-18 11:31N 48°44' W 122°32'0 0.0
2016-Jun-18 10:28N 48°44' W 122°32'0 0.0
2016-Jun-18 09:28N 48°44' W 122°32'0 0.4
2016-Jun-18 08:33N 48°44' W 122°32'6 6.3
2016-Jun-18 07:33N 48°38' W 122°36'7 7.1
2016-Jun-18 06:33N 48°42' W 122°45'7 6.7
2016-Jun-18 05:31N 48°49' W 122°43'0 0.2
2016-Jun-18 04:17N 48°50' W 122°43'0 0.0
2016-Jun-18 02:26N 48°50' W 122°43'0 0.0
2016-Jun-18 01:33N 48°50' W 122°43'0 0.0
2016-Jun-18 00:33N 48°50' W 122°43'0 0.0
2016-Jun-17 23:26N 48°50' W 122°43'0 0.0
2016-Jun-17 10:33N 48°50' W 122°43'2 1.7
2016-Jun-17 09:33N 48°49' W 122°45'0 0.1
2016-Jun-17 08:26N 48°49' W 122°45'0 0.1
2016-Jun-17 07:29N 48°49' W 122°45'0 0.1
2016-Jun-17 04:32N 48°49' W 122°45'0 0.0
2016-Jun-17 03:32N 48°48' W 122°45'0 0.0
2016-Jun-17 02:14N 48°48' W 122°45'0 0.1
2016-Jun-17 01:23N 48°49' W 122°45'0 0.1
2016-Jun-17 00:32N 48°49' W 122°45'0 0.0
2016-Jun-16 20:14N 48°49' W 122°45'0 0.1
2016-Jun-16 19:31N 48°49' W 122°45'0 0.1
2016-Jun-16 18:25N 48°49' W 122°46'0 0.2
2016-Jun-16 17:31N 48°48' W 122°45'0 0.0
2016-Jun-16 16:31N 48°48' W 122°45'0 0.0
2016-Jun-16 14:22N 48°48' W 122°45'0 0.0
2016-Jun-16 13:16N 48°48' W 122°45'0 0.0
2016-Jun-16 12:13N 48°48' W 122°45'0 0.2
2016-Jun-16 11:13N 48°49' W 122°45'0 0.1
2016-Jun-16 10:22N 48°49' W 122°45'0 0.1
2016-Jun-16 09:31N 48°49' W 122°45'0 0.0
2016-Jun-16 08:31N 48°49' W 122°46'0 0.0
2016-Jun-16 07:31N 48°49' W 122°45'0 0.0
2016-Jun-16 06:25N 48°49' W 122°45'0 0.0
2016-Jun-16 03:28N 48°48' W 122°45'0 0.0
2016-Jun-16 02:31N 48°48' W 122°45'0 0.0
2016-Jun-16 00:33N 48°48' W 122°45'3 3.0
2016-Jun-15 23:33N 48°52' W 122°45'0 0.2
2016-Jun-15 22:33N 48°52' W 122°46'0 0.1
2016-Jun-15 20:05N 48°52' W 122°45'0 0.1
2016-Jun-15 19:29N 48°52' W 122°45'0 0.0
2016-Jun-15 18:17N 48°52' W 122°45'0 0.0
2016-Jun-15 17:29N 48°52' W 122°45'0 0.0
2016-Jun-15 16:32N 48°52' W 122°45'0 0.0
2016-Jun-15 09:32N 48°52' W 122°45'0 0.0
2016-Jun-15 08:29N 48°52' W 122°45'0 0.0
2016-Jun-15 07:23N 48°52' W 122°45'0 0.0
2016-Jun-15 05:23N 48°52' W 122°45'0 0.0
2016-Jun-15 04:29N 48°52' W 122°45'0 0.0
2016-Jun-15 03:23N 48°52' W 122°45'0 0.0
2016-Jun-15 00:29N 48°52' W 122°45'0 0.2
2016-Jun-14 23:34N 48°52' W 122°46'1 1.4
2016-Jun-14 22:33N 48°50' W 122°46'2 1.6
2016-Jun-14 21:33N 48°49' W 122°46'0 0.3
2016-Jun-14 20:33N 48°48' W 122°46'1 0.7
2016-Jun-14 19:31N 48°49' W 122°45'1 1.3
2016-Jun-14 18:31N 48°48' W 122°45'5 4.8
2016-Jun-14 17:34N 48°43' W 122°44'6 5.5
2016-Jun-14 16:34N 48°38' W 122°44'5 5.4
2016-Jun-14 15:34N 48°32' W 122°45'5 5.1
2016-Jun-14 14:34N 48°27' W 122°44'6 5.5
2016-Jun-14 13:32N 48°22' W 122°45'6 6.5
2016-Jun-14 12:34N 48°16' W 122°48'8 7.9
2016-Jun-14 11:32N 48°09' W 122°42'9 8.9
2016-Jun-14 10:34N 48°01' W 122°36'8 8.3
2016-Jun-14 09:34N 47°54' W 122°28'  
Track history (hours):
 
Tides and Currents Weather Stations Pressure Air Temp Water Temp Dewpoint Dewpoint Depression Visibility Wind Speed Wind Dir Waves Ship Positions

Adriatic Sea

Owner: Kirby Offshore Marine, LLC, Seattle, WA. More information available from US FCC via Universal Licensing System and Coast Guard Vessel Documentation Center.

Last reported at 2016-Jun-24 09:06 UTC. Time now 2016-Jun-24 20:26 UTC.
Position N 48°50' W 122°43'.

Length 42 m; draft 4.7 m.

Type: . MMSI: 366910890.

Date/timePositionNaut miles runAvg speedWind from/ knotsBaromVisibWave heightAir tempDewpointWater temp
2016-Jun-24 09:06N 48°50' W 122°43'0 0.0
2016-Jun-24 08:33N 48°50' W 122°43'1 0.7
2016-Jun-24 07:32N 48°49' W 122°44'1 0.3
2016-Jun-24 04:23N 48°48' W 122°44'0 0.0
2016-Jun-24 03:20N 48°48' W 122°44'0 0.0
2016-Jun-24 01:23N 48°48' W 122°44'1 0.4
2016-Jun-23 23:33N 48°48' W 122°44'6 6.2
2016-Jun-23 22:33N 48°42' W 122°43'6 5.7
2016-Jun-23 21:33N 48°36' W 122°45'5 5.1
2016-Jun-23 20:33N 48°31' W 122°44'4 3.8
2016-Jun-23 19:33N 48°27' W 122°44'4 4.0
2016-Jun-23 18:33N 48°23' W 122°44'6 5.7
2016-Jun-23 17:33N 48°18' W 122°47'8 7.5
2016-Jun-23 16:32N 48°10' W 122°44'10 9.9
2016-Jun-23 15:33N 48°02' W 122°37'9 8.8
2016-Jun-23 14:33N 47°55' W 122°29'8 8.2
2016-Jun-23 13:33N 47°47' W 122°26'7 7.2
2016-Jun-23 12:33N 47°40' W 122°27'7 7.4
2016-Jun-23 11:33N 47°33' W 122°26'7 7.1
2016-Jun-23 10:33N 47°26' W 122°23'6 5.9
2016-Jun-23 09:33N 47°20' W 122°25'4 0.3
2016-Jun-22 19:08N 47°17' W 122°23'0 0.0
2016-Jun-22 18:17N 47°17' W 122°23'0 0.0
2016-Jun-22 16:33N 47°17' W 122°23'3 3.0
2016-Jun-22 15:33N 47°18' W 122°27'3 3.0
2016-Jun-22 14:33N 47°20' W 122°29'0 0.1
2016-Jun-22 13:33N 47°20' W 122°29'0 0.1
2016-Jun-22 12:30N 47°20' W 122°29'0 0.0
2016-Jun-22 11:33N 47°21' W 122°29'0 0.1
2016-Jun-22 10:33N 47°20' W 122°29'0 0.1
2016-Jun-22 09:33N 47°20' W 122°29'0 0.0
2016-Jun-22 08:32N 47°20' W 122°29'0 0.0
2016-Jun-22 07:29N 47°20' W 122°29'0 0.0
2016-Jun-22 06:32N 47°20' W 122°29'0 0.0
2016-Jun-22 05:32N 47°20' W 122°29'0 0.1
2016-Jun-22 04:32N 47°20' W 122°29'0 0.1
2016-Jun-22 03:32N 47°21' W 122°29'0 0.0
2016-Jun-22 02:32N 47°20' W 122°29'0 0.1
2016-Jun-22 01:32N 47°20' W 122°29'0 0.1
2016-Jun-22 00:32N 47°21' W 122°29'0 0.0
2016-Jun-21 23:32N 47°21' W 122°29'0 0.1
2016-Jun-21 22:32N 47°21' W 122°29'0 0.1
2016-Jun-21 21:23N 47°20' W 122°29'0 0.1
2016-Jun-21 20:32N 47°20' W 122°29'0 0.0
2016-Jun-21 19:32N 47°20' W 122°29'0 0.0
2016-Jun-21 18:29N 47°20' W 122°29'1 0.9
2016-Jun-21 17:33N 47°20' W 122°28'4 4.1
2016-Jun-21 16:33N 47°23' W 122°23'4 4.1
2016-Jun-21 15:33N 47°26' W 122°25'4 4.2
2016-Jun-21 14:33N 47°31' W 122°26'4 4.5
2016-Jun-21 13:33N 47°35' W 122°28'5 4.8
2016-Jun-21 12:33N 47°40' W 122°28'5 4.7
2016-Jun-21 11:33N 47°44' W 122°27'5 4.7
2016-Jun-21 10:33N 47°49' W 122°28'5 4.5
2016-Jun-21 09:33N 47°53' W 122°30'4 4.0
2016-Jun-21 08:33N 47°57' W 122°33'9 3.5
2016-Jun-21 06:03N 48°04' W 122°40'4 2.7
2016-Jun-21 04:31N 48°08' W 122°42'3 3.2
2016-Jun-21 03:31N 48°10' W 122°46'4 4.3
2016-Jun-21 02:32N 48°13' W 122°49'5 5.3
2016-Jun-21 01:33N 48°19' W 122°47'5 4.6
2016-Jun-21 00:33N 48°23' W 122°45'3 3.4
2016-Jun-20 23:33N 48°26' W 122°45'2 2.4
2016-Jun-20 22:33N 48°29' W 122°44'3 2.7
2016-Jun-20 21:33N 48°31' W 122°45'3 3.5
2016-Jun-20 20:33N 48°35' W 122°45'5 5.0
2016-Jun-20 19:33N 48°40' W 122°43'6 5.9
2016-Jun-20 18:33N 48°45' W 122°46'3 0.8
2016-Jun-20 14:15N 48°49' W 122°45'0 0.1
2016-Jun-20 13:23N 48°49' W 122°45'0 0.1
2016-Jun-20 12:26N 48°49' W 122°46'0 0.0
2016-Jun-20 11:32N 48°49' W 122°46'0 0.1
2016-Jun-20 10:32N 48°49' W 122°46'0 0.3
2016-Jun-20 09:30N 48°49' W 122°45'3 3.2
2016-Jun-20 08:33N 48°52' W 122°46'0 0.0
2016-Jun-20 02:20N 48°52' W 122°45'0 0.0
2016-Jun-20 01:32N 48°52' W 122°45'0 0.0
2016-Jun-20 00:32N 48°52' W 122°45'0 0.0
2016-Jun-19 23:29N 48°52' W 122°45'0 0.0
2016-Jun-19 22:23N 48°52' W 122°45'0 0.0
2016-Jun-19 21:23N 48°52' W 122°45'0 0.0
2016-Jun-19 20:29N 48°52' W 122°45'0 0.0
2016-Jun-19 19:32N 48°52' W 122°45'0 0.0
2016-Jun-19 13:31N 48°52' W 122°45'0 0.0
2016-Jun-19 11:33N 48°52' W 122°45'0 0.2
2016-Jun-19 10:33N 48°52' W 122°46'1 0.6
2016-Jun-19 09:27N 48°51' W 122°46'1 1.4
2016-Jun-19 08:33N 48°50' W 122°46'6 5.8
2016-Jun-19 07:32N 48°44' W 122°45'6 5.7
2016-Jun-19 06:33N 48°39' W 122°40'4 4.0
2016-Jun-19 05:33N 48°40' W 122°34'5 4.8
2016-Jun-19 04:33N 48°44' W 122°32'0 0.0
2016-Jun-19 03:04N 48°44' W 122°32'0 0.0
2016-Jun-19 02:04N 48°44' W 122°32'0 0.0
2016-Jun-19 01:28N 48°44' W 122°32'0 0.0
2016-Jun-19 00:28N 48°44' W 122°32'0 0.0
2016-Jun-18 23:16N 48°44' W 122°32'0 0.1
2016-Jun-18 22:28N 48°44' W 122°32'0 0.0
2016-Jun-18 21:22N 48°44' W 122°32'0 0.0
2016-Jun-18 20:10N 48°44' W 122°32'0 0.0
2016-Jun-18 19:28N 48°44' W 122°32'0 0.0
2016-Jun-18 18:22N 48°44' W 122°32'0 0.0
2016-Jun-18 17:10N 48°44' W 122°32'0 0.0
2016-Jun-18 15:16N 48°44' W 122°32'0 0.0
2016-Jun-18 13:10N 48°44' W 122°32'0 0.0
2016-Jun-18 12:28N 48°44' W 122°32'0 0.0
2016-Jun-18 11:31N 48°44' W 122°32'0 0.0
2016-Jun-18 10:28N 48°44' W 122°32'0 0.0
2016-Jun-18 09:28N 48°44' W 122°32'0 0.4
2016-Jun-18 08:33N 48°44' W 122°32'6 6.3
2016-Jun-18 07:33N 48°38' W 122°36'7 7.1
2016-Jun-18 06:33N 48°42' W 122°45'7 6.7
2016-Jun-18 05:31N 48°49' W 122°43'0 0.2
2016-Jun-18 04:17N 48°50' W 122°43'0 0.0
2016-Jun-18 02:26N 48°50' W 122°43'0 0.0
2016-Jun-18 01:33N 48°50' W 122°43'0 0.0
2016-Jun-18 00:33N 48°50' W 122°43'0 0.0
2016-Jun-17 23:26N 48°50' W 122°43'0 0.0
2016-Jun-17 10:33N 48°50' W 122°43'2 1.7
2016-Jun-17 09:33N 48°49' W 122°45'0 0.1
2016-Jun-17 08:26N 48°49' W 122°45'0 0.1
2016-Jun-17 07:29N 48°49' W 122°45'0 0.1
2016-Jun-17 04:32N 48°49' W 122°45'0 0.0
2016-Jun-17 03:32N 48°48' W 122°45'0 0.0
2016-Jun-17 02:14N 48°48' W 122°45'0 0.1
2016-Jun-17 01:23N 48°49' W 122°45'0 0.1
2016-Jun-17 00:32N 48°49' W 122°45'0 0.0
2016-Jun-16 20:14N 48°49' W 122°45'0 0.1
2016-Jun-16 19:31N 48°49' W 122°45'0 0.1
2016-Jun-16 18:25N 48°49' W 122°46'0 0.2
2016-Jun-16 17:31N 48°48' W 122°45'0 0.0
2016-Jun-16 16:31N 48°48' W 122°45'0 0.0
2016-Jun-16 14:22N 48°48' W 122°45'0 0.0
2016-Jun-16 13:16N 48°48' W 122°45'0 0.0
2016-Jun-16 12:13N 48°48' W 122°45'0 0.2
2016-Jun-16 11:13N 48°49' W 122°45'0 0.1
2016-Jun-16 10:22N 48°49' W 122°45'0 0.1
2016-Jun-16 09:31N 48°49' W 122°45'0 0.0
2016-Jun-16 08:31N 48°49' W 122°46'0 0.0
2016-Jun-16 07:31N 48°49' W 122°45'0 0.0
2016-Jun-16 06:25N 48°49' W 122°45'0 0.0
2016-Jun-16 03:28N 48°48' W 122°45'0 0.0
2016-Jun-16 02:31N 48°48' W 122°45'0 0.0
2016-Jun-16 00:33N 48°48' W 122°45'3 3.0
2016-Jun-15 23:33N 48°52' W 122°45'0 0.2
2016-Jun-15 22:33N 48°52' W 122°46'0 0.1
2016-Jun-15 20:05N 48°52' W 122°45'0 0.1
2016-Jun-15 19:29N 48°52' W 122°45'0 0.0
2016-Jun-15 18:17N 48°52' W 122°45'0 0.0
2016-Jun-15 17:29N 48°52' W 122°45'0 0.0
2016-Jun-15 16:32N 48°52' W 122°45'0 0.0
2016-Jun-15 09:32N 48°52' W 122°45'0 0.0
2016-Jun-15 08:29N 48°52' W 122°45'0 0.0
2016-Jun-15 07:23N 48°52' W 122°45'0 0.0
2016-Jun-15 05:23N 48°52' W 122°45'0 0.0
2016-Jun-15 04:29N 48°52' W 122°45'0 0.0
2016-Jun-15 03:23N 48°52' W 122°45'0 0.0
2016-Jun-15 00:29N 48°52' W 122°45'0 0.2
2016-Jun-14 23:34N 48°52' W 122°46'1 1.4
2016-Jun-14 22:33N 48°50' W 122°46'2 1.6
2016-Jun-14 21:33N 48°49' W 122°46'0 0.3
2016-Jun-14 20:33N 48°48' W 122°46'1 0.7
2016-Jun-14 19:31N 48°49' W 122°45'1 1.3
2016-Jun-14 18:31N 48°48' W 122°45'5 4.8
2016-Jun-14 17:34N 48°43' W 122°44'6 5.5
2016-Jun-14 16:34N 48°38' W 122°44'5 5.4
2016-Jun-14 15:34N 48°32' W 122°45'5 5.1
2016-Jun-14 14:34N 48°27' W 122°44'6 5.5
2016-Jun-14 13:32N 48°22' W 122°45'6 6.5
2016-Jun-14 12:34N 48°16' W 122°48'8 7.9
2016-Jun-14 11:32N 48°09' W 122°42'9 8.9
2016-Jun-14 10:34N 48°01' W 122°36'8 8.3
2016-Jun-14 09:34N 47°54' W 122°28'  

Dump ship's entire track history